Time;durP1;ratioP1;P1;durP2;ratioP2;P2;SDS_P1;SDS_P2;PMS_P1;PMS_P2;Temp;Humidity;BMP_temperature;BMP_pressure;BME280_temperature;BME280_humidity;BME280_pressure;Samples;Min_cycle;Max_cycle;Signal;HPM_P1;HPM_P2
2021/12/03 00:02:23;;;;;;;;;;;20.20;37.70;;;;;;5155698;27;19908;-60
2021/12/03 00:04:48;;;;;;;;;;;20.20;37.60;;;;;;5155392;27;19915;-60
2021/12/03 00:07:14;;;;;;;;;;;20.20;37.60;;;;;;5155673;27;19959;-59
2021/12/03 00:09:39;;;;;;;;;;;20.20;37.70;;;;;;5155435;27;20385;-59
2021/12/03 00:12:05;;;;;;;;;;;20.20;37.60;;;;;;5155404;27;19907;-59
2021/12/03 00:14:32;;;;;;;;;;;20.20;37.60;;;;;;5155615;27;19956;-59
2021/12/03 00:16:58;;;;;;;;;;;20.10;37.60;;;;;;5155023;27;19914;-60
2021/12/03 00:19:23;;;;;;;;;;;20.10;37.50;;;;;;5155237;27;19907;-59
2021/12/03 00:21:49;;;;;;;;;;;20.10;37.60;;;;;;5155352;27;20275;-59
2021/12/03 00:24:14;;;;;;;;;;;20.20;37.60;;;;;;5154998;27;19915;-60
2021/12/03 00:26:40;;;;;;;;;;;20.10;37.60;;;;;;5155121;27;19907;-59
2021/12/03 00:29:05;;;;;;;;;;;20.10;37.60;;;;;;5155133;27;19907;-59
2021/12/03 00:31:31;;;;;;;;;;;20.10;37.60;;;;;;5155323;27;19907;-59
2021/12/03 00:33:56;;;;;;;;;;;20.10;37.60;;;;;;5155311;27;19907;-59
2021/12/03 00:36:23;;;;;;;;;;;20.10;37.60;;;;;;5155103;27;19907;-59
2021/12/03 00:38:53;;;;;;;;;;;20.10;37.60;;;;;;5155281;27;19907;-59
2021/12/03 00:41:20;;;;;;;;;;;20.00;37.60;;;;;;5155174;27;19958;-59
2021/12/03 00:43:47;;;;;;;;;;;20.00;37.60;;;;;;5155216;27;19908;-59
2021/12/03 00:46:16;;;;;;;;;;;20.00;37.50;;;;;;5154980;27;19911;-59
2021/12/03 00:48:42;;;;;;;;;;;20.00;37.60;;;;;;5155098;27;20014;-59
2021/12/03 00:51:08;;;;;;;;;;;20.00;37.60;;;;;;5156986;27;19958;-59
2021/12/03 00:53:33;;;;;;;;;;;20.00;37.60;;;;;;5159078;27;19914;-59
2021/12/03 00:55:59;;;;;;;;;;;20.00;37.60;;;;;;5159328;27;19911;-59
2021/12/03 00:58:24;;;;;;;;;;;20.00;37.60;;;;;;5158857;27;19929;-59
2021/12/03 01:00:50;;;;;;;;;;;20.00;37.50;;;;;;5159258;27;19955;-59
2021/12/03 01:03:15;;;;;;;;;;;20.00;37.60;;;;;;5159179;27;20278;-60
2021/12/03 01:05:41;;;;;;;;;;;20.00;37.60;;;;;;5158765;27;20308;-60
2021/12/03 01:08:06;;;;;;;;;;;19.90;37.60;;;;;;5158812;27;19911;-59
2021/12/03 01:10:32;;;;;;;;;;;19.90;37.60;;;;;;5158841;27;19923;-60
2021/12/03 01:12:57;;;;;;;;;;;19.90;37.50;;;;;;5158741;27;19907;-60
2021/12/03 01:15:27;;;;;;;;;;;19.90;37.60;;;;;;5158706;27;20385;-59
2021/12/03 01:17:53;;;;;;;;;;;19.90;37.50;;;;;;5158696;27;19929;-59
2021/12/03 01:20:19;;;;;;;;;;;19.90;37.50;;;;;;5158899;27;20353;-59
2021/12/03 01:22:45;;;;;;;;;;;19.90;37.50;;;;;;5158730;27;19942;-59
2021/12/03 01:25:13;;;;;;;;;;;19.90;37.50;;;;;;5158515;27;20305;-60
2021/12/03 01:27:39;;;;;;;;;;;19.90;37.50;;;;;;5158397;27;19911;-60
2021/12/03 01:30:06;;;;;;;;;;;19.80;37.50;;;;;;5158456;27;19915;-59
2021/12/03 01:32:31;;;;;;;;;;;19.80;37.50;;;;;;5158567;27;19952;-60
2021/12/03 01:34:56;;;;;;;;;;;19.80;37.60;;;;;;5158492;27;19915;-59
2021/12/03 01:37:22;;;;;;;;;;;19.80;37.50;;;;;;5158247;27;19907;-59
2021/12/03 01:39:47;;;;;;;;;;;19.80;37.40;;;;;;5158312;27;19907;-60
2021/12/03 01:42:13;;;;;;;;;;;19.80;37.50;;;;;;5158395;27;20274;-59
2021/12/03 01:44:38;;;;;;;;;;;19.80;37.50;;;;;;5158281;27;19926;-59
2021/12/03 01:47:04;;;;;;;;;;;19.80;37.50;;;;;;5157969;27;19929;-59
2021/12/03 01:49:29;;;;;;;;;;;19.80;37.50;;;;;;5158284;27;19951;-59
2021/12/03 01:51:55;;;;;;;;;;;19.80;37.50;;;;;;5158099;27;19938;-59
2021/12/03 01:54:20;;;;;;;;;;;19.80;37.50;;;;;;5158232;27;19959;-60
2021/12/03 01:56:46;;;;;;;;;;;19.80;37.50;;;;;;5157739;27;19963;-60
2021/12/03 01:59:11;;;;;;;;;;;19.70;37.40;;;;;;5157888;27;19907;-60
2021/12/03 02:01:37;;;;;;;;;;;19.80;37.40;;;;;;5157776;27;20013;-59
2021/12/03 02:04:05;;;;;;;;;;;19.70;37.40;;;;;;5157820;27;20261;-60
2021/12/03 02:06:31;;;;;;;;;;;19.70;37.40;;;;;;5157787;27;19956;-59
2021/12/03 02:08:57;;;;;;;;;;;19.70;37.40;;;;;;5157891;27;19907;-60
2021/12/03 02:11:23;;;;;;;;;;;19.70;37.50;;;;;;5157584;27;19914;-59
2021/12/03 02:13:48;;;;;;;;;;;19.70;37.50;;;;;;5157855;27;19907;-60
2021/12/03 02:16:14;;;;;;;;;;;19.70;37.50;;;;;;5157490;27;20282;-59
2021/12/03 02:18:40;;;;;;;;;;;19.70;37.50;;;;;;5157578;27;19907;-59
2021/12/03 02:21:06;;;;;;;;;;;19.70;37.50;;;;;;5157343;27;20009;-59
2021/12/03 02:23:32;;;;;;;;;;;19.70;37.50;;;;;;5157617;27;19907;-59
2021/12/03 02:25:58;;;;;;;;;;;19.70;37.50;;;;;;5157194;27;20419;-59
2021/12/03 02:28:25;;;;;;;;;;;19.70;37.40;;;;;;5157534;27;19907;-60
2021/12/03 02:30:51;;;;;;;;;;;19.70;37.40;;;;;;5157064;27;19952;-59
2021/12/03 02:33:16;;;;;;;;;;;19.70;37.50;;;;;;5157325;27;19998;-59
2021/12/03 02:35:43;;;;;;;;;;;19.70;37.50;;;;;;5157425;27;19957;-59
2021/12/03 02:38:10;;;;;;;;;;;19.60;37.50;;;;;;5157413;27;20207;-60
2021/12/03 02:40:36;;;;;;;;;;;19.70;37.40;;;;;;5157038;27;20366;-60
2021/12/03 02:43:02;;;;;;;;;;;19.60;37.50;;;;;;5157280;27;19914;-60
2021/12/03 02:45:27;;;;;;;;;;;19.60;37.40;;;;;;5157089;27;19915;-59
2021/12/03 02:47:52;;;;;;;;;;;19.60;37.50;;;;;;5157279;27;20404;-60
2021/12/03 02:50:18;;;;;;;;;;;19.60;37.50;;;;;;5156857;27;19914;-59
2021/12/03 02:52:45;;;;;;;;;;;19.60;37.50;;;;;;5157153;27;19959;-59
2021/12/03 02:55:10;;;;;;;;;;;19.60;37.50;;;;;;5156704;27;19907;-59
2021/12/03 02:57:36;;;;;;;;;;;19.60;37.50;;;;;;5156662;27;19922;-60
2021/12/03 03:00:03;;;;;;;;;;;19.60;37.50;;;;;;5156858;27;19907;-59
2021/12/03 03:02:28;;;;;;;;;;;19.60;37.50;;;;;;5156891;27;19930;-59
2021/12/03 03:04:53;;;;;;;;;;;19.60;37.50;;;;;;5156631;27;20355;-60
2021/12/03 03:07:20;;;;;;;;;;;19.60;37.40;;;;;;5156575;27;20019;-60
2021/12/03 03:09:46;;;;;;;;;;;19.60;37.50;;;;;;5156733;27;19913;-59
2021/12/03 03:12:12;;;;;;;;;;;19.50;37.50;;;;;;5156771;27;19990;-60
2021/12/03 03:14:51;;;;;;;;;;;19.60;37.50;;;;;;5155863;27;20376;-59
2021/12/03 03:17:16;;;;;;;;;;;19.50;37.50;;;;;;5156365;27;19907;-60
2021/12/03 03:19:42;;;;;;;;;;;19.50;37.50;;;;;;5156412;27;19914;-59
2021/12/03 03:22:07;;;;;;;;;;;19.50;37.50;;;;;;5156556;27;20199;-59
2021/12/03 03:24:33;;;;;;;;;;;19.50;37.50;;;;;;5156109;27;20319;-59
2021/12/03 03:26:59;;;;;;;;;;;19.50;37.60;;;;;;5156173;27;19911;-60
2021/12/03 03:29:24;;;;;;;;;;;19.50;37.50;;;;;;5156460;27;19907;-59
2021/12/03 03:31:51;;;;;;;;;;;19.50;37.50;;;;;;5156297;27;19951;-59
2021/12/03 03:34:16;;;;;;;;;;;19.50;37.50;;;;;;5156230;27;19907;-60
2021/12/03 03:36:42;;;;;;;;;;;19.50;37.60;;;;;;5155959;27;19907;-60
2021/12/03 03:39:10;;;;;;;;;;;19.50;37.60;;;;;;5156189;27;19907;-59
2021/12/03 03:41:35;;;;;;;;;;;19.50;37.60;;;;;;5155873;27;19993;-59
2021/12/03 03:44:01;;;;;;;;;;;19.50;37.60;;;;;;5155918;27;20336;-59
2021/12/03 03:46:26;;;;;;;;;;;19.50;37.60;;;;;;5155929;27;19918;-60
2021/12/03 03:48:52;;;;;;;;;;;19.50;37.60;;;;;;5155701;27;20319;-59
2021/12/03 03:51:18;;;;;;;;;;;19.50;37.60;;;;;;5155658;27;20160;-59
2021/12/03 03:53:43;;;;;;;;;;;19.50;37.60;;;;;;5155741;27;19911;-59
2021/12/03 03:56:10;;;;;;;;;;;19.50;37.60;;;;;;5155766;27;19925;-59
2021/12/03 03:58:37;;;;;;;;;;;19.50;37.60;;;;;;5155408;27;20422;-59
2021/12/03 04:01:04;;;;;;;;;;;19.50;37.60;;;;;;5155689;27;20013;-60
2021/12/03 04:03:30;;;;;;;;;;;19.50;37.60;;;;;;5155372;27;20366;-60
2021/12/03 04:05:56;;;;;;;;;;;19.40;37.60;;;;;;5155290;27;20385;-58
2021/12/03 04:08:21;;;;;;;;;;;19.40;37.60;;;;;;5155440;27;19907;-60
2021/12/03 04:10:47;;;;;;;;;;;19.40;37.60;;;;;;5155386;27;20347;-60
2021/12/03 04:13:12;;;;;;;;;;;19.40;37.60;;;;;;5155525;27;19915;-60
2021/12/03 04:15:38;;;;;;;;;;;19.40;37.60;;;;;;5155232;27;19930;-60
2021/12/03 04:18:03;;;;;;;;;;;19.40;37.70;;;;;;5155423;27;19908;-59
2021/12/03 04:20:29;;;;;;;;;;;19.40;37.60;;;;;;5155236;27;19911;-60
2021/12/03 04:22:54;;;;;;;;;;;19.40;37.70;;;;;;5155423;27;19988;-60
2021/12/03 04:25:21;;;;;;;;;;;19.40;37.70;;;;;;5154415;27;19915;-59
2021/12/03 04:27:47;;;;;;;;;;;19.40;37.70;;;;;;5155060;27;19956;-59
2021/12/03 04:30:21;;;;;;;;;;;19.40;37.60;;;;;;5136523;27;19907;-59
2021/12/03 04:32:46;;;;;;;;;;;19.40;37.60;;;;;;5155237;27;20150;-59
2021/12/03 04:35:12;;;;;;;;;;;19.40;37.70;;;;;;5154933;27;19953;-59
2021/12/03 04:37:38;;;;;;;;;;;19.40;37.70;;;;;;5154958;27;19907;-59
2021/12/03 04:40:04;;;;;;;;;;;19.40;37.70;;;;;;5155220;27;19907;-59
2021/12/03 04:42:30;;;;;;;;;;;19.40;37.70;;;;;;5154948;27;20035;-59
2021/12/03 04:44:55;;;;;;;;;;;19.30;37.70;;;;;;5154897;27;19997;-59
2021/12/03 04:47:21;;;;;;;;;;;19.30;37.70;;;;;;5155260;27;19960;-59
2021/12/03 04:49:46;;;;;;;;;;;19.40;37.70;;;;;;5154872;27;19914;-59
2021/12/03 04:52:12;;;;;;;;;;;19.30;37.70;;;;;;5155126;27;19959;-59
2021/12/03 04:54:37;;;;;;;;;;;19.30;37.70;;;;;;5155061;27;19907;-59
2021/12/03 04:57:03;;;;;;;;;;;19.30;37.70;;;;;;5154596;27;19914;-59
2021/12/03 04:59:28;;;;;;;;;;;19.30;37.70;;;;;;5154833;27;19942;-59
2021/12/03 05:01:56;;;;;;;;;;;19.30;37.70;;;;;;5155127;27;19907;-60
2021/12/03 05:04:22;;;;;;;;;;;19.30;37.70;;;;;;5154598;27;20349;-59
2021/12/03 05:07:05;;;;;;;;;;;19.30;37.70;;;;;;5155065;27;19918;-58
2021/12/03 05:09:31;;;;;;;;;;;19.30;37.70;;;;;;5155007;27;19907;-59
2021/12/03 05:11:57;;;;;;;;;;;19.30;37.70;;;;;;5154688;27;19915;-59
2021/12/03 05:14:22;;;;;;;;;;;19.30;37.70;;;;;;5154571;27;19991;-59
2021/12/03 05:16:48;;;;;;;;;;;19.30;37.70;;;;;;5154919;27;19907;-59
2021/12/03 05:19:15;;;;;;;;;;;19.30;37.60;;;;;;5154416;27;19907;-59
2021/12/03 05:21:40;;;;;;;;;;;19.40;37.60;;;;;;5154646;27;19907;-59
2021/12/03 05:24:06;;;;;;;;;;;19.40;37.60;;;;;;5154425;27;19914;-59
2021/12/03 05:26:32;;;;;;;;;;;19.40;37.60;;;;;;5154535;27;19911;-59
2021/12/03 05:28:57;;;;;;;;;;;19.40;37.50;;;;;;5154548;27;19910;-59
2021/12/03 05:31:22;;;;;;;;;;;19.40;37.50;;;;;;5154525;27;20409;-59
2021/12/03 05:33:48;;;;;;;;;;;19.50;37.50;;;;;;5154846;27;19966;-59
2021/12/03 05:36:13;;;;;;;;;;;19.50;37.50;;;;;;5154782;27;20278;-60
2021/12/03 05:38:40;;;;;;;;;;;19.50;37.40;;;;;;5158361;27;20259;-60
2021/12/03 05:41:05;;;;;;;;;;;19.50;37.40;;;;;;5158197;27;19908;-59
2021/12/03 05:43:30;;;;;;;;;;;19.60;37.40;;;;;;5158189;27;19907;-60
2021/12/03 05:45:56;;;;;;;;;;;19.50;37.40;;;;;;5158032;27;19915;-59
2021/12/03 05:48:21;;;;;;;;;;;19.60;37.30;;;;;;5158410;27;20369;-59
2021/12/03 05:50:48;;;;;;;;;;;19.60;37.40;;;;;;5158069;27;19907;-60
2021/12/03 05:53:14;;;;;;;;;;;19.60;37.40;;;;;;5158233;27;20273;-59
2021/12/03 05:55:39;;;;;;;;;;;19.60;37.40;;;;;;5157865;27;19911;-59
2021/12/03 05:58:05;;;;;;;;;;;19.70;37.30;;;;;;5157858;27;20009;-59
2021/12/03 06:00:33;;;;;;;;;;;19.70;37.30;;;;;;5158128;27;19907;-59
2021/12/03 06:02:59;;;;;;;;;;;19.70;37.30;;;;;;5157793;27;19907;-59
2021/12/03 06:05:25;;;;;;;;;;;19.70;37.30;;;;;;5157903;27;19954;-59
2021/12/03 06:07:51;;;;;;;;;;;19.70;37.30;;;;;;5158000;27;20011;-60
2021/12/03 06:10:17;;;;;;;;;;;19.70;37.30;;;;;;5157653;27;19950;-59
2021/12/03 06:12:43;;;;;;;;;;;19.80;37.30;;;;;;5158054;27;19907;-59
2021/12/03 06:15:08;;;;;;;;;;;19.80;37.30;;;;;;5157593;27;19911;-60
2021/12/03 06:17:34;;;;;;;;;;;19.80;37.30;;;;;;5157485;27;20006;-59
2021/12/03 06:19:59;;;;;;;;;;;19.80;37.40;;;;;;5157652;27;19918;-59
2021/12/03 06:22:25;;;;;;;;;;;19.80;37.30;;;;;;5157498;27;20425;-60
2021/12/03 06:24:50;;;;;;;;;;;19.80;37.40;;;;;;5157390;27;20023;-59
2021/12/03 06:27:16;;;;;;;;;;;19.90;37.30;;;;;;5157426;27;19907;-59
2021/12/03 06:29:41;;;;;;;;;;;19.90;37.30;;;;;;5157259;27;19907;-59
2021/12/03 06:32:09;;;;;;;;;;;19.90;37.30;;;;;;5157271;27;19907;-59
2021/12/03 06:34:35;;;;;;;;;;;19.90;37.30;;;;;;5157374;27;19907;-59
2021/12/03 06:37:01;;;;;;;;;;;19.90;37.30;;;;;;5157500;27;19960;-59
2021/12/03 06:39:26;;;;;;;;;;;19.90;37.30;;;;;;5157027;27;19911;-59
2021/12/03 06:41:51;;;;;;;;;;;20.00;37.30;;;;;;5157041;27;19913;-60
2021/12/03 06:44:18;;;;;;;;;;;20.00;37.30;;;;;;5156889;27;19985;-60
2021/12/03 06:46:44;;;;;;;;;;;20.00;37.30;;;;;;5157264;27;19911;-59
2021/12/03 06:49:09;;;;;;;;;;;20.00;37.30;;;;;;5156180;27;20361;-59
2021/12/03 06:51:42;;;;;;;;;;;20.00;37.30;;;;;;5157053;27;19914;-59
2021/12/03 06:54:09;;;;;;;;;;;20.00;37.30;;;;;;5156975;27;19994;-60
2021/12/03 06:56:47;;;;;;;;;;;20.00;37.30;;;;;;5156766;27;20036;-61
2021/12/03 06:59:13;;;;;;;;;;;20.00;37.20;;;;;;5156996;27;19915;-59
2021/12/03 07:01:39;;;;;;;;;;;20.00;37.30;;;;;;5156624;27;20301;-60
2021/12/03 07:04:04;;;;;;;;;;;20.00;37.30;;;;;;5156521;27;19914;-59
2021/12/03 07:06:29;;;;;;;;;;;20.00;37.30;;;;;;5156560;27;19953;-59
2021/12/03 07:08:55;;;;;;;;;;;20.00;37.30;;;;;;5156842;27;19907;-59
2021/12/03 07:11:20;;;;;;;;;;;20.00;37.30;;;;;;5156421;27;19911;-60
2021/12/03 07:13:46;;;;;;;;;;;20.00;37.30;;;;;;5156571;27;19907;-59
2021/12/03 07:16:12;;;;;;;;;;;20.00;37.30;;;;;;5156364;27;19914;-59
2021/12/03 07:18:38;;;;;;;;;;;20.10;37.30;;;;;;5156335;27;19952;-59
2021/12/03 07:21:03;;;;;;;;;;;20.00;37.30;;;;;;5156460;27;19938;-60
2021/12/03 07:23:29;;;;;;;;;;;20.10;37.30;;;;;;5156266;27;19959;-60
2021/12/03 07:25:54;;;;;;;;;;;20.10;37.30;;;;;;5156009;27;19915;-59
2021/12/03 07:28:20;;;;;;;;;;;20.10;37.20;;;;;;5156296;27;20350;-59
2021/12/03 07:30:45;;;;;;;;;;;20.10;37.30;;;;;;5156226;27;19929;-59
2021/12/03 07:33:14;;;;;;;;;;;20.20;37.30;;;;;;5155960;27;19994;-59
2021/12/03 07:35:40;;;;;;;;;;;20.10;37.30;;;;;;5156209;27;19975;-59
2021/12/03 07:38:05;;;;;;;;;;;20.10;37.30;;;;;;5155983;27;20366;-59
2021/12/03 07:40:31;;;;;;;;;;;20.10;37.40;;;;;;5155951;27;19907;-59
2021/12/03 07:42:56;;;;;;;;;;;20.20;37.30;;;;;;5155998;27;19925;-59
2021/12/03 07:45:22;;;;;;;;;;;20.20;37.20;;;;;;5155743;27;20006;-59
2021/12/03 07:47:47;;;;;;;;;;;20.20;37.30;;;;;;5155843;27;20354;-59
2021/12/03 07:50:13;;;;;;;;;;;20.20;37.30;;;;;;5155823;27;20056;-59
2021/12/03 07:52:39;;;;;;;;;;;20.20;37.30;;;;;;5155902;27;19971;-60
2021/12/03 07:55:05;;;;;;;;;;;20.20;37.30;;;;;;5155553;27;20046;-60
2021/12/03 07:57:30;;;;;;;;;;;20.20;37.20;;;;;;5155420;27;20011;-59
2021/12/03 07:59:56;;;;;;;;;;;20.20;37.30;;;;;;5155673;27;19907;-59
2021/12/03 08:02:23;;;;;;;;;;;20.20;37.30;;;;;;5155727;27;20362;-59
2021/12/03 08:04:48;;;;;;;;;;;20.30;37.30;;;;;;5155606;27;19967;-59
2021/12/03 08:07:14;;;;;;;;;;;20.30;37.30;;;;;;5155622;27;20351;-59
2021/12/03 08:09:39;;;;;;;;;;;20.30;37.30;;;;;;5155531;27;19910;-59
2021/12/03 08:12:06;;;;;;;;;;;20.30;37.30;;;;;;5155311;27;19914;-60
2021/12/03 08:14:31;;;;;;;;;;;20.30;37.30;;;;;;5155526;27;19907;-59
2021/12/03 08:16:57;;;;;;;;;;;20.30;37.30;;;;;;5155457;27;19930;-59
2021/12/03 08:19:22;;;;;;;;;;;20.30;37.30;;;;;;5155220;27;19907;-59
2021/12/03 08:21:48;;;;;;;;;;;20.30;37.30;;;;;;5155546;27;19914;-59
2021/12/03 08:24:14;;;;;;;;;;;20.30;37.30;;;;;;5155156;27;20365;-59
2021/12/03 08:26:39;;;;;;;;;;;20.30;37.30;;;;;;5155307;27;20467;-59
2021/12/03 08:29:05;;;;;;;;;;;20.40;37.30;;;;;;5154921;27;19907;-59
2021/12/03 08:31:30;;;;;;;;;;;20.30;37.30;;;;;;5155131;27;20009;-59
2021/12/03 08:33:56;;;;;;;;;;;20.30;37.30;;;;;;5155281;27;20242;-59
2021/12/03 08:36:21;;;;;;;;;;;20.40;37.30;;;;;;5154840;27;19946;-59
2021/12/03 08:38:47;;;;;;;;;;;20.40;37.30;;;;;;5154814;27;19911;-59
2021/12/03 08:41:16;;;;;;;;;;;20.40;37.30;;;;;;5154907;27;19998;-59
2021/12/03 08:43:42;;;;;;;;;;;20.40;37.30;;;;;;5155140;27;19907;-59
2021/12/03 08:46:10;;;;;;;;;;;20.40;37.30;;;;;;5154717;27;19922;-59
2021/12/03 08:48:41;;;;;;;;;;;20.40;37.30;;;;;;5154899;27;19913;-59
2021/12/03 08:56:25;;;;;;;;;;;20.40;37.30;;;;;;5155021;27;19975;-59
2021/12/03 08:58:51;;;;;;;;;;;20.40;37.30;;;;;;5154714;27;19919;-59
2021/12/03 09:01:16;;;;;;;;;;;20.40;37.30;;;;;;5154795;27;20002;-59
2021/12/03 09:03:42;;;;;;;;;;;20.40;37.30;;;;;;5154795;27;19907;-59
2021/12/03 09:06:07;;;;;;;;;;;20.50;37.20;;;;;;5154583;27;20328;-59
2021/12/03 09:08:33;;;;;;;;;;;20.50;37.20;;;;;;5154893;27;19930;-59
2021/12/03 09:10:58;;;;;;;;;;;20.50;37.30;;;;;;5154150;27;19907;-59
2021/12/03 09:13:24;;;;;;;;;;;20.50;37.30;;;;;;5158489;27;19907;-59
2021/12/03 09:16:03;;;;;;;;;;;20.50;37.30;;;;;;5158674;27;19965;-60
2021/12/03 09:21:07;;;;;;;;;;;20.50;37.30;;;;;;5158416;27;20390;-59
2021/12/03 09:26:13;;;;;;;;;;;20.50;37.20;;;;;;5158573;27;19926;-59
2021/12/03 09:28:40;;;;;;;;;;;20.50;37.20;;;;;;5158486;27;20385;-59
2021/12/03 09:31:06;;;;;;;;;;;20.50;37.30;;;;;;5158323;27;20376;-60
2021/12/03 09:33:34;;;;;;;;;;;20.50;37.20;;;;;;5158558;27;19907;-59
2021/12/03 09:36:02;;;;;;;;;;;20.50;37.30;;;;;;5158444;27;20030;-60
2021/12/03 09:38:32;;;;;;;;;;;20.50;37.20;;;;;;5158233;27;19975;-59
2021/12/03 09:41:14;;;;;;;;;;;20.50;37.20;;;;;;5158416;27;19908;-59
2021/12/03 09:43:41;;;;;;;;;;;20.60;37.20;;;;;;5157671;27;19914;-59
2021/12/03 09:46:14;;;;;;;;;;;20.50;37.20;;;;;;5158046;27;19938;-58
2021/12/03 09:51:26;;;;;;;;;;;20.50;37.30;;;;;;5158054;27;19908;-59
2021/12/03 09:56:36;;;;;;;;;;;20.60;37.30;;;;;;5158082;27;19960;-59
2021/12/03 10:01:52;;;;;;;;;;;20.60;37.30;;;;;;5158241;27;20365;-59
2021/12/03 10:04:44;;;;;;;;;;;20.60;37.30;;;;;;5157954;27;19913;-59
2021/12/03 10:15:18;;;;;;;;;;;20.70;37.20;;;;;;5157688;27;20009;-60
2021/12/03 10:17:51;;;;;;;;;;;20.70;37.20;;;;;;5157683;27;19911;-59
2021/12/03 10:20:27;;;;;;;;;;;20.70;37.30;;;;;;5157736;27;19990;-59
2021/12/03 10:41:42;;;;;;;;;;;20.70;37.30;;;;;;5157209;27;19907;-59
2021/12/03 10:44:27;;;;;;;;;;;20.70;37.30;;;;;;5157241;27;20011;-59
2021/12/03 10:47:04;;;;;;;;;;;20.70;37.20;;;;;;5157154;27;19915;-59
2021/12/03 11:25:28;;;;;;;;;;;20.80;37.20;;;;;;5156328;27;20311;-59
2021/12/03 12:04:37;;;;;;;;;;;20.80;37.20;;;;;;5114474;28;19953;-60
2021/12/03 12:21:36;;;;;;;;;;;20.90;37.10;;;;;;5114372;28;19923;-59
2021/12/03 13:11:14;;;;;;;;;;;21.00;37.00;;;;;;5159135;27;19907;-59
2021/12/03 13:16:57;;;;;;;;;;;21.00;37.10;;;;;;5158968;27;19907;-59
2021/12/03 13:27:58;;;;;;;;;;;21.00;37.10;;;;;;5159042;27;19925;-59
2021/12/03 14:00:31;;;;;;;;;;;21.10;37.10;;;;;;5158385;27;19914;-59
2021/12/03 14:03:41;;;;;;;;;;;21.00;37.00;;;;;;5158209;27;19907;-60
2021/12/03 14:24:36;;;;;;;;;;;21.10;37.10;;;;;;5137215;27;20379;-59
2021/12/03 14:42:22;;;;;;;;;;;21.10;37.10;;;;;;5157510;27;20002;-59
2021/12/03 14:52:57;;;;;;;;;;;21.10;37.10;;;;;;5157385;27;19914;-60
2021/12/03 14:55:23;;;;;;;;;;;21.10;37.10;;;;;;5157032;27;19907;-59
2021/12/03 14:57:57;;;;;;;;;;;21.10;37.00;;;;;;5156696;27;19926;-59
2021/12/03 15:08:27;;;;;;;;;;;21.10;37.00;;;;;;5157058;27;20010;-58
2021/12/03 15:14:19;;;;;;;;;;;21.00;37.00;;;;;;5156799;27;19907;-59
2021/12/03 15:25:06;;;;;;;;;;;21.00;37.00;;;;;;5092212;28;19923;-62
2021/12/03 15:27:56;;;;;;;;;;;21.00;37.00;;;;;;5092334;28;19994;-59
2021/12/03 15:30:34;;;;;;;;;;;21.00;36.90;;;;;;5136173;27;19967;-59
2021/12/03 15:33:07;;;;;;;;;;;21.10;37.00;;;;;;5155837;27;19907;-60
2021/12/03 15:35:54;;;;;;;;;;;21.10;37.00;;;;;;5156158;27;19914;-59
2021/12/03 15:52:36;;;;;;;;;;;21.10;36.90;;;;;;5155770;27;19945;-58
2021/12/03 16:08:05;;;;;;;;;;;21.10;37.00;;;;;;5155589;27;19954;-58
2021/12/03 16:10:57;;;;;;;;;;;21.10;36.90;;;;;;5155344;27;20466;-59
2021/12/03 16:19:14;;;;;;;;;;;21.10;36.90;;;;;;5155300;27;19961;-59
2021/12/03 16:22:01;;;;;;;;;;;21.10;36.90;;;;;;5155494;27;19915;-59
2021/12/03 16:24:56;;;;;;;;;;;21.10;36.90;;;;;;5155277;27;19907;-59
2021/12/03 16:27:49;;;;;;;;;;;21.10;36.90;;;;;;5155092;27;19911;-59
2021/12/03 16:43:58;;;;;;;;;;;21.10;36.90;;;;;;5155020;27;19914;-59
2021/12/03 16:51:40;;;;;;;;;;;21.10;36.90;;;;;;5154962;27;19907;-60
2021/12/03 16:54:08;;;;;;;;;;;21.10;37.00;;;;;;5154962;27;19907;-59
2021/12/03 16:56:35;;;;;;;;;;;21.10;36.90;;;;;;5154996;27;20077;-59
2021/12/03 16:59:00;;;;;;;;;;;21.10;36.90;;;;;;5154345;27;19930;-59
2021/12/03 17:01:42;;;;;;;;;;;21.10;36.90;;;;;;5154864;27;20297;-59
2021/12/03 17:09:20;;;;;;;;;;;21.10;37.00;;;;;;5154778;27;19918;-59
2021/12/03 17:20:43;;;;;;;;;;;21.10;36.90;;;;;;5128099;27;19907;-60
2021/12/03 17:44:48;;;;;;;;;;;21.10;36.90;;;;;;5158405;27;19933;-59
2021/12/03 17:47:31;;;;;;;;;;;21.10;36.90;;;;;;5158106;27;19921;-60
2021/12/03 18:00:10;;;;;;;;;;;21.10;36.90;;;;;;5157700;27;20269;-59
2021/12/03 18:02:41;;;;;;;;;;;21.10;36.90;;;;;;5157943;27;19911;-59
2021/12/03 18:05:24;;;;;;;;;;;21.10;36.90;;;;;;5157765;27;20435;-59
2021/12/03 18:48:22;;;;;;;;;;;21.20;36.90;;;;;;5157402;27;19935;-59
2021/12/03 18:53:43;;;;;;;;;;;21.20;36.90;;;;;;5157288;27;19914;-60
2021/12/03 18:56:17;;;;;;;;;;;21.10;36.90;;;;;;5157161;27;19911;-59
2021/12/03 18:58:42;;;;;;;;;;;21.20;36.90;;;;;;5156663;27;19923;-59
2021/12/03 19:01:11;;;;;;;;;;;21.10;36.90;;;;;;5156757;27;19975;-60
2021/12/03 19:06:50;;;;;;;;;;;21.10;36.90;;;;;;5156444;27;20362;-60
2021/12/03 19:09:04;;;;;;;;;;;21.20;36.90;;;;;;5147976;27;20044;-60
2021/12/03 19:11:36;;;;;;;;;;;21.10;36.90;;;;;;5156459;27;20375;-59
2021/12/03 19:14:06;;;;;;;;;;;21.10;36.90;;;;;;5156018;27;21210;-59
2021/12/03 19:16:32;;;;;;;;;;;21.20;36.90;;;;;;5156406;27;19907;-59
2021/12/03 19:18:59;;;;;;;;;;;21.20;36.90;;;;;;5156785;27;19952;-59
2021/12/03 19:21:26;;;;;;;;;;;21.20;36.90;;;;;;5156367;27;20430;-59
2021/12/03 19:23:59;;;;;;;;;;;21.20;36.90;;;;;;5156578;27;19907;-59
2021/12/03 19:26:25;;;;;;;;;;;21.10;36.80;;;;;;5156415;27;20003;-59
2021/12/03 19:28:51;;;;;;;;;;;21.20;36.90;;;;;;5156216;27;20044;-59
2021/12/03 19:31:17;;;;;;;;;;;21.20;36.90;;;;;;5156139;27;20002;-59
2021/12/03 19:33:42;;;;;;;;;;;21.20;36.90;;;;;;5156135;27;20365;-60
2021/12/03 19:36:08;;;;;;;;;;;21.20;36.90;;;;;;5156308;27;19960;-59
2021/12/03 19:38:37;;;;;;;;;;;21.20;36.90;;;;;;5156302;27;20269;-60
2021/12/03 19:41:11;;;;;;;;;;;21.20;36.80;;;;;;5156232;27;19907;-59
2021/12/03 19:43:46;;;;;;;;;;;21.20;36.90;;;;;;5155853;27;19945;-59
2021/12/03 19:46:18;;;;;;;;;;;21.20;36.90;;;;;;5156082;27;19922;-59
2021/12/03 19:48:50;;;;;;;;;;;21.20;36.90;;;;;;5155981;27;19907;-60
2021/12/03 19:51:18;;;;;;;;;;;21.20;36.80;;;;;;5155802;27;19937;-60
2021/12/03 19:53:50;;;;;;;;;;;21.20;36.90;;;;;;5155618;27;19929;-59
2021/12/03 19:56:15;;;;;;;;;;;21.20;36.90;;;;;;5155191;27;19972;-60
2021/12/03 19:58:41;;;;;;;;;;;21.20;36.90;;;;;;5155416;27;19919;-59
2021/12/03 20:01:06;;;;;;;;;;;21.20;36.90;;;;;;5155428;27;19958;-59
2021/12/03 20:03:32;;;;;;;;;;;21.20;36.90;;;;;;5155512;27;19936;-60
2021/12/03 20:05:58;;;;;;;;;;;21.20;36.90;;;;;;5155410;27;19946;-59
2021/12/03 20:08:25;;;;;;;;;;;21.20;36.90;;;;;;5155339;27;19911;-60
2021/12/03 20:10:51;;;;;;;;;;;21.20;36.90;;;;;;5155611;27;19916;-59
2021/12/03 20:13:22;;;;;;;;;;;21.20;36.90;;;;;;5155251;27;19911;-59
2021/12/03 20:20:59;;;;;;;;;;;21.20;36.90;;;;;;5155234;27;20273;-60
2021/12/03 20:23:37;;;;;;;;;;;21.20;36.80;;;;;;5155211;27;19914;-59
2021/12/03 20:26:27;;;;;;;;;;;21.20;36.80;;;;;;5155217;27;19921;-60
2021/12/03 20:31:17;;;;;;;;;;;21.20;36.80;;;;;;5155313;27;19907;-60
2021/12/03 20:36:29;;;;;;;;;;;21.20;36.90;;;;;;5155259;27;19911;-59
2021/12/03 20:38:58;;;;;;;;;;;21.20;36.80;;;;;;5154940;27;20365;-59
2021/12/03 20:44:57;;;;;;;;;;;21.20;36.80;;;;;;5155035;27;19930;-59
2021/12/03 20:47:15;;;;;;;;;;;21.20;36.90;;;;;;5146299;27;19922;-59
2021/12/03 20:52:44;;;;;;;;;;;21.20;36.90;;;;;;5155409;27;19975;-59
2021/12/03 21:08:50;;;;;;;;;;;21.30;36.80;;;;;;5115455;27;19907;-59
2021/12/03 21:11:20;;;;;;;;;;;21.20;36.90;;;;;;5159231;27;19914;-59
2021/12/03 21:13:47;;;;;;;;;;;21.20;36.90;;;;;;5159276;27;19907;-59
2021/12/03 21:19:15;;;;;;;;;;;21.20;36.90;;;;;;5159198;27;19953;-59
2021/12/03 21:22:15;;;;;;;;;;;21.10;36.90;;;;;;5159038;27;19914;-60
2021/12/03 21:24:34;;;;;;;;;;;21.20;36.90;;;;;;5155550;27;19914;-59
2021/12/03 21:27:02;;;;;;;;;;;21.10;37.00;;;;;;5158885;27;19915;-59
2021/12/03 21:32:12;;;;;;;;;;;21.10;37.00;;;;;;5158880;27;19908;-59
2021/12/03 21:40:13;;;;;;;;;;;21.00;37.10;;;;;;5158405;27;20331;-59
2021/12/03 21:42:39;;;;;;;;;;;21.00;37.00;;;;;;5158405;27;19907;-59
2021/12/03 21:45:05;;;;;;;;;;;21.00;37.10;;;;;;5158475;27;19916;-60
2021/12/03 21:47:30;;;;;;;;;;;21.00;37.00;;;;;;5158042;27;20419;-60
2021/12/03 21:49:56;;;;;;;;;;;21.00;37.00;;;;;;5158303;27;19907;-60
2021/12/03 21:52:22;;;;;;;;;;;20.90;37.10;;;;;;5158277;27;20338;-60
2021/12/03 21:54:48;;;;;;;;;;;20.90;37.10;;;;;;5139242;27;19914;-60
2021/12/03 21:57:13;;;;;;;;;;;20.90;37.10;;;;;;5158001;27;19919;-59
2021/12/03 21:59:39;;;;;;;;;;;20.80;37.20;;;;;;5158177;27;19907;-60
2021/12/03 22:02:05;;;;;;;;;;;20.90;37.20;;;;;;5158068;27;19907;-60
2021/12/03 22:04:31;;;;;;;;;;;20.80;37.20;;;;;;5158124;27;19911;-60
2021/12/03 22:07:00;;;;;;;;;;;20.80;37.20;;;;;;5157829;27;20315;-60
2021/12/03 22:09:26;;;;;;;;;;;20.80;37.20;;;;;;5157771;27;19911;-60